KCVN/CVN METAR and TAF weather

Enter ICAO airport designator
Station Type Date Time Source
KCVN METAR 2018/01/19 22:56 UTC NOAA

KCVN 192256Z AUTO 25012KT 10SM CLR 21/M12 A2983 RMK AO2 SLP087 T02111117


Station Type Date Time Source
KCVN Decoded METAR 2018/01/19 22:56 UTC NOAA

Clovis, Clovis Municipal Airport, NM, United States (KCVN) 34-26N 103-05W
Jan 19, 2018 - 05:56 PM EST / 2018.01.19 2256 UTC
Wind: from the WSW (250 degrees) at 14 MPH (12 KT):0
Visibility: 10 mile(s):0
Sky conditions: clear
Temperature: 70.0 F (21.1 C)
Dew Point: 10.9 F (-11.7 C)
Relative Humidity: 9%
Pressure (altimeter): 29.83 in. Hg (1010 hPa)
ob: KCVN 192256Z AUTO 25012KT 10SM CLR 21/M12 A2983 RMK AO2 SLP087 T02111117
cycle: 23

Station Type Date Time Source
KCVN TAF UTC NOAA

Error!


Example: see airport list